sensor_id;sensor_type;location;lat;lon;timestamp;temperature;humidity
48686;DHT22;34485;51.536;3.816;2024-01-30T00:01:45;10.10;99.90
48686;DHT22;34485;51.536;3.816;2024-01-30T00:04:11;10.10;99.90
48686;DHT22;34485;51.536;3.816;2024-01-30T00:06:37;10.10;99.90
48686;DHT22;34485;51.536;3.816;2024-01-30T00:09:02;10.10;99.90
48686;DHT22;34485;51.536;3.816;2024-01-30T00:11:28;10.10;99.90
48686;DHT22;34485;51.536;3.816;2024-01-30T00:13:54;10.00;99.90
48686;DHT22;34485;51.536;3.816;2024-01-30T00:16:22;10.00;99.90
48686;DHT22;34485;51.536;3.816;2024-01-30T00:18:50;10.00;99.90
48686;DHT22;34485;51.536;3.816;2024-01-30T00:21:16;10.10;99.90
48686;DHT22;34485;51.536;3.816;2024-01-30T00:23:41;10.10;99.90
48686;DHT22;34485;51.536;3.816;2024-01-30T00:26:07;10.10;99.90
48686;DHT22;34485;51.536;3.816;2024-01-30T00:28:33;10.10;99.90
48686;DHT22;34485;51.536;3.816;2024-01-30T00:30:58;10.10;99.90
48686;DHT22;34485;51.536;3.816;2024-01-30T00:33:24;10.10;99.90
48686;DHT22;34485;51.536;3.816;2024-01-30T00:35:50;10.10;99.90
48686;DHT22;34485;51.536;3.816;2024-01-30T00:38:15;10.20;99.90
48686;DHT22;34485;51.536;3.816;2024-01-30T00:40:41;10.20;99.90
48686;DHT22;34485;51.536;3.816;2024-01-30T00:43:07;10.10;99.90
48686;DHT22;34485;51.536;3.816;2024-01-30T00:45:33;10.10;99.90
48686;DHT22;34485;51.536;3.816;2024-01-30T00:47:59;10.00;99.90
48686;DHT22;34485;51.536;3.816;2024-01-30T00:50:24;10.00;99.90
48686;DHT22;34485;51.536;3.816;2024-01-30T00:52:50;10.00;99.90
48686;DHT22;34485;51.536;3.816;2024-01-30T00:55:16;10.00;99.90
48686;DHT22;34485;51.536;3.816;2024-01-30T00:57:41;9.90;99.90
48686;DHT22;34485;51.536;3.816;2024-01-30T01:00:08;9.90;99.90
48686;DHT22;34485;51.536;3.816;2024-01-30T01:02:35;9.90;99.90
48686;DHT22;34485;51.536;3.816;2024-01-30T01:05:01;9.90;99.90
48686;DHT22;34485;51.536;3.816;2024-01-30T01:07:27;9.90;99.90
48686;DHT22;34485;51.536;3.816;2024-01-30T01:09:53;9.90;99.90
48686;DHT22;34485;51.536;3.816;2024-01-30T01:12:18;9.90;99.90
48686;DHT22;34485;51.536;3.816;2024-01-30T01:14:45;9.90;99.90
48686;DHT22;34485;51.536;3.816;2024-01-30T01:17:10;9.90;99.90
48686;DHT22;34485;51.536;3.816;2024-01-30T01:19:36;9.90;99.90
48686;DHT22;34485;51.536;3.816;2024-01-30T01:22:02;9.90;99.90
48686;DHT22;34485;51.536;3.816;2024-01-30T01:24:30;9.90;99.90
48686;DHT22;34485;51.536;3.816;2024-01-30T01:26:56;9.90;99.90
48686;DHT22;34485;51.536;3.816;2024-01-30T01:29:22;9.80;99.90
48686;DHT22;34485;51.536;3.816;2024-01-30T01:31:56;9.90;99.90
48686;DHT22;34485;51.536;3.816;2024-01-30T01:36:49;9.90;99.90
48686;DHT22;34485;51.536;3.816;2024-01-30T01:39:15;9.80;99.90
48686;DHT22;34485;51.536;3.816;2024-01-30T01:41:41;9.80;99.90
48686;DHT22;34485;51.536;3.816;2024-01-30T01:46:34;9.70;99.90
48686;DHT22;34485;51.536;3.816;2024-01-30T01:49:04;9.70;99.90
48686;DHT22;34485;51.536;3.816;2024-01-30T01:51:33;9.60;99.90
48686;DHT22;34485;51.536;3.816;2024-01-30T01:54:02;9.60;99.90
48686;DHT22;34485;51.536;3.816;2024-01-30T01:56:29;9.60;99.90
48686;DHT22;34485;51.536;3.816;2024-01-30T01:59:07;9.50;99.90
48686;DHT22;34485;51.536;3.816;2024-01-30T02:01:34;9.50;99.90
48686;DHT22;34485;51.536;3.816;2024-01-30T02:04:01;9.50;99.90
48686;DHT22;34485;51.536;3.816;2024-01-30T02:06:27;9.40;99.90
48686;DHT22;34485;51.536;3.816;2024-01-30T02:08:54;9.50;99.90
48686;DHT22;34485;51.536;3.816;2024-01-30T02:11:20;9.50;99.90
48686;DHT22;34485;51.536;3.816;2024-01-30T02:13:47;9.50;99.90
48686;DHT22;34485;51.536;3.816;2024-01-30T02:16:13;9.50;99.90
48686;DHT22;34485;51.536;3.816;2024-01-30T02:18:38;9.50;99.90
48686;DHT22;34485;51.536;3.816;2024-01-30T02:21:09;9.60;99.90
48686;DHT22;34485;51.536;3.816;2024-01-30T02:23:34;9.60;99.90
48686;DHT22;34485;51.536;3.816;2024-01-30T02:26:00;9.60;99.90
48686;DHT22;34485;51.536;3.816;2024-01-30T02:28:26;9.70;99.90
48686;DHT22;34485;51.536;3.816;2024-01-30T02:30:53;9.70;99.90
48686;DHT22;34485;51.536;3.816;2024-01-30T02:33:19;9.70;99.90
48686;DHT22;34485;51.536;3.816;2024-01-30T02:35:45;9.80;99.90
48686;DHT22;34485;51.536;3.816;2024-01-30T02:38:10;9.80;99.90
48686;DHT22;34485;51.536;3.816;2024-01-30T02:40:36;9.80;99.90
48686;DHT22;34485;51.536;3.816;2024-01-30T02:43:03;9.80;99.90
48686;DHT22;34485;51.536;3.816;2024-01-30T02:45:29;9.80;99.90
48686;DHT22;34485;51.536;3.816;2024-01-30T02:47:54;9.80;99.90
48686;DHT22;34485;51.536;3.816;2024-01-30T02:50:20;9.80;99.90
48686;DHT22;34485;51.536;3.816;2024-01-30T02:52:45;9.80;99.90
48686;DHT22;34485;51.536;3.816;2024-01-30T02:55:11;9.80;99.90
48686;DHT22;34485;51.536;3.816;2024-01-30T02:57:38;9.80;99.90
48686;DHT22;34485;51.536;3.816;2024-01-30T03:00:04;9.80;99.90
48686;DHT22;34485;51.536;3.816;2024-01-30T03:02:32;9.80;99.90
48686;DHT22;34485;51.536;3.816;2024-01-30T03:04:58;9.90;99.90
48686;DHT22;34485;51.536;3.816;2024-01-30T03:07:24;9.80;99.90
48686;DHT22;34485;51.536;3.816;2024-01-30T03:09:49;9.80;99.90
48686;DHT22;34485;51.536;3.816;2024-01-30T03:12:15;9.90;99.90
48686;DHT22;34485;51.536;3.816;2024-01-30T03:14:40;9.90;99.90
48686;DHT22;34485;51.536;3.816;2024-01-30T03:17:06;9.90;99.90
48686;DHT22;34485;51.536;3.816;2024-01-30T03:19:32;9.90;99.90
48686;DHT22;34485;51.536;3.816;2024-01-30T03:21:58;9.90;99.90
48686;DHT22;34485;51.536;3.816;2024-01-30T03:24:24;9.90;99.90
48686;DHT22;34485;51.536;3.816;2024-01-30T03:26:49;9.90;99.90
48686;DHT22;34485;51.536;3.816;2024-01-30T03:29:15;9.90;99.90
48686;DHT22;34485;51.536;3.816;2024-01-30T03:31:41;9.80;99.90
48686;DHT22;34485;51.536;3.816;2024-01-30T03:34:06;9.80;99.90
48686;DHT22;34485;51.536;3.816;2024-01-30T03:36:32;9.80;99.90
48686;DHT22;34485;51.536;3.816;2024-01-30T03:39:00;9.80;99.90
48686;DHT22;34485;51.536;3.816;2024-01-30T03:41:25;9.80;99.90
48686;DHT22;34485;51.536;3.816;2024-01-30T03:43:51;9.80;99.90
48686;DHT22;34485;51.536;3.816;2024-01-30T03:46:16;9.80;99.90
48686;DHT22;34485;51.536;3.816;2024-01-30T03:48:42;9.80;99.90
48686;DHT22;34485;51.536;3.816;2024-01-30T03:51:08;9.80;99.90
48686;DHT22;34485;51.536;3.816;2024-01-30T03:53:34;9.80;99.90
48686;DHT22;34485;51.536;3.816;2024-01-30T03:56:00;9.80;99.90
48686;DHT22;34485;51.536;3.816;2024-01-30T03:58:26;9.80;99.90
48686;DHT22;34485;51.536;3.816;2024-01-30T04:00:52;9.80;99.90
48686;DHT22;34485;51.536;3.816;2024-01-30T04:03:18;9.80;99.90
48686;DHT22;34485;51.536;3.816;2024-01-30T04:05:43;9.80;99.90
48686;DHT22;34485;51.536;3.816;2024-01-30T04:08:09;9.80;99.90
48686;DHT22;34485;51.536;3.816;2024-01-30T04:10:35;9.80;99.90
48686;DHT22;34485;51.536;3.816;2024-01-30T04:13:01;9.80;99.90
48686;DHT22;34485;51.536;3.816;2024-01-30T04:15:27;9.90;99.90
48686;DHT22;34485;51.536;3.816;2024-01-30T04:17:57;9.90;99.90
48686;DHT22;34485;51.536;3.816;2024-01-30T04:20:24;9.80;99.90
48686;DHT22;34485;51.536;3.816;2024-01-30T04:22:50;9.90;99.90
48686;DHT22;34485;51.536;3.816;2024-01-30T04:25:15;9.90;99.90
48686;DHT22;34485;51.536;3.816;2024-01-30T04:27:41;9.90;99.90
48686;DHT22;34485;51.536;3.816;2024-01-30T04:30:07;9.90;99.90
48686;DHT22;34485;51.536;3.816;2024-01-30T04:32:33;9.90;99.90
48686;DHT22;34485;51.536;3.816;2024-01-30T04:35:00;9.90;99.90
48686;DHT22;34485;51.536;3.816;2024-01-30T04:37:25;9.90;99.90
48686;DHT22;34485;51.536;3.816;2024-01-30T04:39:51;9.90;99.90
48686;DHT22;34485;51.536;3.816;2024-01-30T04:42:17;10.00;99.90
48686;DHT22;34485;51.536;3.816;2024-01-30T04:44:43;10.00;99.90
48686;DHT22;34485;51.536;3.816;2024-01-30T04:47:08;10.00;99.90
48686;DHT22;34485;51.536;3.816;2024-01-30T04:49:36;10.00;99.90
48686;DHT22;34485;51.536;3.816;2024-01-30T04:52:02;10.10;99.90
48686;DHT22;34485;51.536;3.816;2024-01-30T04:54:28;10.10;99.90
48686;DHT22;34485;51.536;3.816;2024-01-30T04:56:53;10.10;99.90
48686;DHT22;34485;51.536;3.816;2024-01-30T04:59:19;10.10;99.90
48686;DHT22;34485;51.536;3.816;2024-01-30T05:01:45;10.10;99.90
48686;DHT22;34485;51.536;3.816;2024-01-30T05:04:11;10.10;99.90
48686;DHT22;34485;51.536;3.816;2024-01-30T05:06:37;10.10;99.90
48686;DHT22;34485;51.536;3.816;2024-01-30T05:09:03;10.10;99.90
48686;DHT22;34485;51.536;3.816;2024-01-30T05:11:30;10.00;99.90
48686;DHT22;34485;51.536;3.816;2024-01-30T05:13:56;10.10;99.90
48686;DHT22;34485;51.536;3.816;2024-01-30T05:16:22;10.00;99.90
48686;DHT22;34485;51.536;3.816;2024-01-30T05:18:47;10.00;99.90
48686;DHT22;34485;51.536;3.816;2024-01-30T05:21:13;10.00;99.90
48686;DHT22;34485;51.536;3.816;2024-01-30T05:23:39;10.00;99.90
48686;DHT22;34485;51.536;3.816;2024-01-30T05:26:07;10.10;99.90
48686;DHT22;34485;51.536;3.816;2024-01-30T05:28:33;10.00;99.90
48686;DHT22;34485;51.536;3.816;2024-01-30T05:30:59;10.10;99.90
48686;DHT22;34485;51.536;3.816;2024-01-30T05:33:24;10.10;99.90
48686;DHT22;34485;51.536;3.816;2024-01-30T05:35:50;10.10;99.90
48686;DHT22;34485;51.536;3.816;2024-01-30T05:38:19;10.10;99.90
48686;DHT22;34485;51.536;3.816;2024-01-30T05:40:45;10.20;99.90
48686;DHT22;34485;51.536;3.816;2024-01-30T05:43:11;10.20;99.90
48686;DHT22;34485;51.536;3.816;2024-01-30T05:45:37;10.30;99.90
48686;DHT22;34485;51.536;3.816;2024-01-30T05:48:03;10.30;99.90
48686;DHT22;34485;51.536;3.816;2024-01-30T05:50:30;10.30;99.90
48686;DHT22;34485;51.536;3.816;2024-01-30T05:52:55;10.30;99.90
48686;DHT22;34485;51.536;3.816;2024-01-30T05:55:21;10.40;99.90
48686;DHT22;34485;51.536;3.816;2024-01-30T05:57:47;10.40;99.90
48686;DHT22;34485;51.536;3.816;2024-01-30T06:00:13;10.40;99.90
48686;DHT22;34485;51.536;3.816;2024-01-30T06:02:39;10.40;99.90
48686;DHT22;34485;51.536;3.816;2024-01-30T06:05:05;10.40;99.90
48686;DHT22;34485;51.536;3.816;2024-01-30T06:07:31;10.40;99.90
48686;DHT22;34485;51.536;3.816;2024-01-30T06:09:57;10.40;99.90
48686;DHT22;34485;51.536;3.816;2024-01-30T06:12:22;10.40;99.90
48686;DHT22;34485;51.536;3.816;2024-01-30T06:14:48;10.30;99.90
48686;DHT22;34485;51.536;3.816;2024-01-30T06:17:14;10.40;99.90
48686;DHT22;34485;51.536;3.816;2024-01-30T06:19:39;10.40;99.90
48686;DHT22;34485;51.536;3.816;2024-01-30T06:22:05;10.40;99.90
48686;DHT22;34485;51.536;3.816;2024-01-30T06:24:31;10.40;99.90
48686;DHT22;34485;51.536;3.816;2024-01-30T06:26:57;10.30;99.90
48686;DHT22;34485;51.536;3.816;2024-01-30T06:29:22;10.30;99.90
48686;DHT22;34485;51.536;3.816;2024-01-30T06:31:50;10.30;99.90
48686;DHT22;34485;51.536;3.816;2024-01-30T06:34:16;10.30;99.90
48686;DHT22;34485;51.536;3.816;2024-01-30T06:36:41;10.30;99.90
48686;DHT22;34485;51.536;3.816;2024-01-30T06:39:07;10.40;99.90
48686;DHT22;34485;51.536;3.816;2024-01-30T06:41:33;10.30;99.90
48686;DHT22;34485;51.536;3.816;2024-01-30T06:43:59;10.40;99.90
48686;DHT22;34485;51.536;3.816;2024-01-30T06:46:25;10.40;99.90
48686;DHT22;34485;51.536;3.816;2024-01-30T06:48:50;10.40;99.90
48686;DHT22;34485;51.536;3.816;2024-01-30T06:51:16;10.40;99.90
48686;DHT22;34485;51.536;3.816;2024-01-30T06:53:43;10.40;99.90
48686;DHT22;34485;51.536;3.816;2024-01-30T06:56:09;10.40;99.90
48686;DHT22;34485;51.536;3.816;2024-01-30T06:58:34;10.40;99.90
48686;DHT22;34485;51.536;3.816;2024-01-30T07:01:00;10.40;99.90
48686;DHT22;34485;51.536;3.816;2024-01-30T07:03:26;10.50;99.90
48686;DHT22;34485;51.536;3.816;2024-01-30T07:05:51;10.50;99.90
48686;DHT22;34485;51.536;3.816;2024-01-30T07:08:17;10.50;99.90
48686;DHT22;34485;51.536;3.816;2024-01-30T07:10:43;10.50;99.90
48686;DHT22;34485;51.536;3.816;2024-01-30T07:13:10;10.50;99.90
48686;DHT22;34485;51.536;3.816;2024-01-30T07:15:35;10.60;99.90
48686;DHT22;34485;51.536;3.816;2024-01-30T07:18:03;10.60;99.90
48686;DHT22;34485;51.536;3.816;2024-01-30T07:22:56;10.50;99.90
48686;DHT22;34485;51.536;3.816;2024-01-30T07:25:21;10.40;99.90
48686;DHT22;34485;51.536;3.816;2024-01-30T07:27:52;10.40;99.90
48686;DHT22;34485;51.536;3.816;2024-01-30T07:30:19;10.40;99.90
48686;DHT22;34485;51.536;3.816;2024-01-30T07:32:44;10.30;99.90
48686;DHT22;34485;51.536;3.816;2024-01-30T07:35:10;10.30;99.90
48686;DHT22;34485;51.536;3.816;2024-01-30T07:37:36;10.30;99.90
48686;DHT22;34485;51.536;3.816;2024-01-30T07:40:03;10.30;99.90
48686;DHT22;34485;51.536;3.816;2024-01-30T07:42:29;10.30;99.90
48686;DHT22;34485;51.536;3.816;2024-01-30T07:44:54;10.30;99.90
48686;DHT22;34485;51.536;3.816;2024-01-30T07:47:20;10.30;99.90
48686;DHT22;34485;51.536;3.816;2024-01-30T07:49:46;10.30;99.90
48686;DHT22;34485;51.536;3.816;2024-01-30T07:52:12;10.40;99.90
48686;DHT22;34485;51.536;3.816;2024-01-30T07:54:50;10.50;99.90
48686;DHT22;34485;51.536;3.816;2024-01-30T07:57:17;10.50;99.90
48686;DHT22;34485;51.536;3.816;2024-01-30T07:59:46;10.50;99.90
48686;DHT22;34485;51.536;3.816;2024-01-30T08:02:12;10.50;99.90
48686;DHT22;34485;51.536;3.816;2024-01-30T08:04:38;10.60;99.90
48686;DHT22;34485;51.536;3.816;2024-01-30T08:07:04;10.60;99.90
48686;DHT22;34485;51.536;3.816;2024-01-30T08:09:30;10.60;99.90
48686;DHT22;34485;51.536;3.816;2024-01-30T08:11:56;10.60;99.90
48686;DHT22;34485;51.536;3.816;2024-01-30T08:14:21;10.50;99.90
48686;DHT22;34485;51.536;3.816;2024-01-30T08:16:47;10.60;99.90
48686;DHT22;34485;51.536;3.816;2024-01-30T08:19:14;10.60;99.90
48686;DHT22;34485;51.536;3.816;2024-01-30T08:21:40;10.50;99.90
48686;DHT22;34485;51.536;3.816;2024-01-30T08:24:06;10.60;99.90
48686;DHT22;34485;51.536;3.816;2024-01-30T08:26:33;10.60;99.90
48686;DHT22;34485;51.536;3.816;2024-01-30T08:28:59;10.60;99.90
48686;DHT22;34485;51.536;3.816;2024-01-30T08:31:24;10.60;99.90
48686;DHT22;34485;51.536;3.816;2024-01-30T08:33:50;10.60;99.90
48686;DHT22;34485;51.536;3.816;2024-01-30T08:36:17;10.60;99.90
48686;DHT22;34485;51.536;3.816;2024-01-30T08:38:42;10.60;99.90
48686;DHT22;34485;51.536;3.816;2024-01-30T08:41:09;10.60;99.90
48686;DHT22;34485;51.536;3.816;2024-01-30T08:43:34;10.60;99.90
48686;DHT22;34485;51.536;3.816;2024-01-30T08:46:00;10.60;99.90
48686;DHT22;34485;51.536;3.816;2024-01-30T08:48:26;10.60;99.90
48686;DHT22;34485;51.536;3.816;2024-01-30T08:50:52;10.60;99.90
48686;DHT22;34485;51.536;3.816;2024-01-30T08:53:18;10.60;99.90
48686;DHT22;34485;51.536;3.816;2024-01-30T08:55:44;10.60;99.90
48686;DHT22;34485;51.536;3.816;2024-01-30T08:58:10;10.60;99.90
48686;DHT22;34485;51.536;3.816;2024-01-30T09:00:36;10.60;99.90
48686;DHT22;34485;51.536;3.816;2024-01-30T09:03:02;10.70;99.90
48686;DHT22;34485;51.536;3.816;2024-01-30T09:05:28;10.70;99.90
48686;DHT22;34485;51.536;3.816;2024-01-30T09:07:54;10.70;99.90
48686;DHT22;34485;51.536;3.816;2024-01-30T09:10:19;10.80;99.90
48686;DHT22;34485;51.536;3.816;2024-01-30T09:12:46;10.80;99.90
48686;DHT22;34485;51.536;3.816;2024-01-30T09:15:12;10.80;99.90
48686;DHT22;34485;51.536;3.816;2024-01-30T09:17:38;10.90;99.90
48686;DHT22;34485;51.536;3.816;2024-01-30T09:20:04;10.90;99.90
48686;DHT22;34485;51.536;3.816;2024-01-30T09:22:30;10.90;99.90
48686;DHT22;34485;51.536;3.816;2024-01-30T09:24:57;10.90;99.90
48686;DHT22;34485;51.536;3.816;2024-01-30T09:27:22;11.00;99.90
48686;DHT22;34485;51.536;3.816;2024-01-30T09:29:48;11.10;99.90
48686;DHT22;34485;51.536;3.816;2024-01-30T09:32:14;11.20;99.90
48686;DHT22;34485;51.536;3.816;2024-01-30T09:34:39;11.50;99.90
48686;DHT22;34485;51.536;3.816;2024-01-30T09:37:05;11.70;99.90
48686;DHT22;34485;51.536;3.816;2024-01-30T09:39:31;11.80;99.90
48686;DHT22;34485;51.536;3.816;2024-01-30T09:47:13;11.40;99.90
48686;DHT22;34485;51.536;3.816;2024-01-30T09:49:42;11.20;99.90
48686;DHT22;34485;51.536;3.816;2024-01-30T09:52:08;10.90;99.90
48686;DHT22;34485;51.536;3.816;2024-01-30T09:54:35;10.70;99.90
48686;DHT22;34485;51.536;3.816;2024-01-30T09:57:01;10.60;99.90
48686;DHT22;34485;51.536;3.816;2024-01-30T09:59:27;10.60;99.90
48686;DHT22;34485;51.536;3.816;2024-01-30T10:01:53;10.50;99.90
48686;DHT22;34485;51.536;3.816;2024-01-30T10:04:18;10.40;99.90
48686;DHT22;34485;51.536;3.816;2024-01-30T10:06:44;10.30;99.90
48686;DHT22;34485;51.536;3.816;2024-01-30T10:09:10;10.30;99.90
48686;DHT22;34485;51.536;3.816;2024-01-30T10:11:36;10.30;99.90
48686;DHT22;34485;51.536;3.816;2024-01-30T10:14:02;10.30;99.90
48686;DHT22;34485;51.536;3.816;2024-01-30T10:18:54;10.30;99.90
48686;DHT22;34485;51.536;3.816;2024-01-30T10:21:21;10.30;99.90
48686;DHT22;34485;51.536;3.816;2024-01-30T10:23:46;10.30;99.90
48686;DHT22;34485;51.536;3.816;2024-01-30T10:26:12;10.30;99.90
48686;DHT22;34485;51.536;3.816;2024-01-30T10:28:38;10.20;99.90
48686;DHT22;34485;51.536;3.816;2024-01-30T10:31:04;10.20;99.90
48686;DHT22;34485;51.536;3.816;2024-01-30T10:33:30;10.20;99.90
48686;DHT22;34485;51.536;3.816;2024-01-30T10:36:00;10.20;99.90
48686;DHT22;34485;51.536;3.816;2024-01-30T10:38:29;10.10;99.90
48686;DHT22;34485;51.536;3.816;2024-01-30T10:40:57;10.10;99.90
48686;DHT22;34485;51.536;3.816;2024-01-30T10:43:29;10.00;99.90
48686;DHT22;34485;51.536;3.816;2024-01-30T10:45:57;9.90;99.90
48686;DHT22;34485;51.536;3.816;2024-01-30T10:48:30;9.90;99.90
48686;DHT22;34485;51.536;3.816;2024-01-30T10:50:59;9.80;99.90
48686;DHT22;34485;51.536;3.816;2024-01-30T10:53:26;9.80;99.90
48686;DHT22;34485;51.536;3.816;2024-01-30T10:55:54;9.70;99.90
48686;DHT22;34485;51.536;3.816;2024-01-30T10:58:21;9.70;99.90
48686;DHT22;34485;51.536;3.816;2024-01-30T11:00:47;9.60;99.90
48686;DHT22;34485;51.536;3.816;2024-01-30T11:03:15;9.60;99.90
48686;DHT22;34485;51.536;3.816;2024-01-30T11:08:14;9.60;99.90
48686;DHT22;34485;51.536;3.816;2024-01-30T11:10:49;9.60;99.90
48686;DHT22;34485;51.536;3.816;2024-01-30T11:13:16;9.60;99.90
48686;DHT22;34485;51.536;3.816;2024-01-30T11:15:44;9.60;99.90
48686;DHT22;34485;51.536;3.816;2024-01-30T11:18:23;9.60;99.90
48686;DHT22;34485;51.536;3.816;2024-01-30T11:20:49;9.60;99.90
48686;DHT22;34485;51.536;3.816;2024-01-30T11:23:15;9.60;99.90
48686;DHT22;34485;51.536;3.816;2024-01-30T11:25:43;9.50;99.90
48686;DHT22;34485;51.536;3.816;2024-01-30T11:28:14;9.50;99.90
48686;DHT22;34485;51.536;3.816;2024-01-30T11:30:44;9.50;99.90
48686;DHT22;34485;51.536;3.816;2024-01-30T11:33:11;9.40;99.90
48686;DHT22;34485;51.536;3.816;2024-01-30T11:35:40;9.40;99.90
48686;DHT22;34485;51.536;3.816;2024-01-30T11:38:07;9.40;99.90
48686;DHT22;34485;51.536;3.816;2024-01-30T11:40:34;9.40;99.90
48686;DHT22;34485;51.536;3.816;2024-01-30T11:45:27;9.40;99.90
48686;DHT22;34485;51.536;3.816;2024-01-30T11:47:54;9.40;99.90
48686;DHT22;34485;51.536;3.816;2024-01-30T11:50:20;9.40;99.90
48686;DHT22;34485;51.536;3.816;2024-01-30T11:52:46;9.40;99.90
48686;DHT22;34485;51.536;3.816;2024-01-30T11:55:13;9.40;99.90
48686;DHT22;34485;51.536;3.816;2024-01-30T11:57:39;9.30;99.90
48686;DHT22;34485;51.536;3.816;2024-01-30T12:00:06;9.30;99.90
48686;DHT22;34485;51.536;3.816;2024-01-30T12:02:36;9.40;99.90
48686;DHT22;34485;51.536;3.816;2024-01-30T12:05:08;9.50;99.90
48686;DHT22;34485;51.536;3.816;2024-01-30T12:07:34;9.50;99.90
48686;DHT22;34485;51.536;3.816;2024-01-30T12:10:00;9.40;99.90
48686;DHT22;34485;51.536;3.816;2024-01-30T12:12:27;9.50;99.90
48686;DHT22;34485;51.536;3.816;2024-01-30T12:14:54;9.50;99.90
48686;DHT22;34485;51.536;3.816;2024-01-30T12:17:38;9.50;99.90
48686;DHT22;34485;51.536;3.816;2024-01-30T12:20:04;9.50;99.90
48686;DHT22;34485;51.536;3.816;2024-01-30T12:22:33;9.50;99.90
48686;DHT22;34485;51.536;3.816;2024-01-30T12:25:00;9.50;99.90
48686;DHT22;34485;51.536;3.816;2024-01-30T12:27:25;9.40;99.90
48686;DHT22;34485;51.536;3.816;2024-01-30T12:29:56;9.50;99.90
48686;DHT22;34485;51.536;3.816;2024-01-30T12:32:23;9.50;99.90
48686;DHT22;34485;51.536;3.816;2024-01-30T12:34:49;9.40;99.90
48686;DHT22;34485;51.536;3.816;2024-01-30T12:37:14;9.50;99.90
48686;DHT22;34485;51.536;3.816;2024-01-30T12:39:45;9.50;99.90
48686;DHT22;34485;51.536;3.816;2024-01-30T12:42:11;9.60;99.90
48686;DHT22;34485;51.536;3.816;2024-01-30T12:44:36;9.60;99.90
48686;DHT22;34485;51.536;3.816;2024-01-30T12:47:05;9.60;99.90
48686;DHT22;34485;51.536;3.816;2024-01-30T12:49:31;9.70;99.90
48686;DHT22;34485;51.536;3.816;2024-01-30T12:51:57;9.60;99.90
48686;DHT22;34485;51.536;3.816;2024-01-30T12:54:23;9.60;99.90
48686;DHT22;34485;51.536;3.816;2024-01-30T12:56:49;9.60;99.90
48686;DHT22;34485;51.536;3.816;2024-01-30T13:01:41;9.50;99.90
48686;DHT22;34485;51.536;3.816;2024-01-30T13:04:07;9.50;99.90
48686;DHT22;34485;51.536;3.816;2024-01-30T13:06:33;9.40;99.90
48686;DHT22;34485;51.536;3.816;2024-01-30T13:08:58;9.40;99.90
48686;DHT22;34485;51.536;3.816;2024-01-30T13:11:24;9.40;99.90
48686;DHT22;34485;51.536;3.816;2024-01-30T13:13:51;9.30;99.90
48686;DHT22;34485;51.536;3.816;2024-01-30T13:16:17;9.20;99.90
48686;DHT22;34485;51.536;3.816;2024-01-30T13:18:44;9.20;99.90
48686;DHT22;34485;51.536;3.816;2024-01-30T13:21:09;9.20;99.90
48686;DHT22;34485;51.536;3.816;2024-01-30T13:23:35;9.10;99.90
48686;DHT22;34485;51.536;3.816;2024-01-30T13:26:01;9.10;99.90
48686;DHT22;34485;51.536;3.816;2024-01-30T13:28:27;9.10;99.90
48686;DHT22;34485;51.536;3.816;2024-01-30T13:30:53;9.00;99.90
48686;DHT22;34485;51.536;3.816;2024-01-30T13:33:19;9.00;99.90
48686;DHT22;34485;51.536;3.816;2024-01-30T13:35:45;9.00;99.90
48686;DHT22;34485;51.536;3.816;2024-01-30T13:38:10;9.00;99.90
48686;DHT22;34485;51.536;3.816;2024-01-30T13:40:36;9.00;99.90
48686;DHT22;34485;51.536;3.816;2024-01-30T13:43:02;8.90;99.90
48686;DHT22;34485;51.536;3.816;2024-01-30T13:45:28;8.90;99.90
48686;DHT22;34485;51.536;3.816;2024-01-30T13:47:54;8.90;99.90
48686;DHT22;34485;51.536;3.816;2024-01-30T13:50:19;9.00;99.90
48686;DHT22;34485;51.536;3.816;2024-01-30T13:52:45;8.90;99.90
48686;DHT22;34485;51.536;3.816;2024-01-30T13:55:11;9.00;99.90
48686;DHT22;34485;51.536;3.816;2024-01-30T13:57:37;9.00;99.90
48686;DHT22;34485;51.536;3.816;2024-01-30T14:00:04;9.00;99.90
48686;DHT22;34485;51.536;3.816;2024-01-30T14:02:32;9.00;99.90
48686;DHT22;34485;51.536;3.816;2024-01-30T14:04:58;9.10;99.90
48686;DHT22;34485;51.536;3.816;2024-01-30T14:07:24;9.00;99.90
48686;DHT22;34485;51.536;3.816;2024-01-30T14:09:49;9.00;99.90
48686;DHT22;34485;51.536;3.816;2024-01-30T14:12:15;9.00;99.90
48686;DHT22;34485;51.536;3.816;2024-01-30T14:14:41;8.90;99.90
48686;DHT22;34485;51.536;3.816;2024-01-30T14:17:07;8.90;99.90
48686;DHT22;34485;51.536;3.816;2024-01-30T14:19:34;8.90;99.90
48686;DHT22;34485;51.536;3.816;2024-01-30T14:22:00;8.90;99.90
48686;DHT22;34485;51.536;3.816;2024-01-30T14:24:26;8.90;99.90
48686;DHT22;34485;51.536;3.816;2024-01-30T14:26:52;8.90;99.90
48686;DHT22;34485;51.536;3.816;2024-01-30T14:29:18;8.80;99.90
48686;DHT22;34485;51.536;3.816;2024-01-30T14:31:44;8.80;99.90
48686;DHT22;34485;51.536;3.816;2024-01-30T14:34:10;8.80;99.90
48686;DHT22;34485;51.536;3.816;2024-01-30T14:36:39;8.80;99.90
48686;DHT22;34485;51.536;3.816;2024-01-30T14:39:04;8.80;99.90
48686;DHT22;34485;51.536;3.816;2024-01-30T14:41:32;8.80;99.90
48686;DHT22;34485;51.536;3.816;2024-01-30T14:43:58;8.70;99.90
48686;DHT22;34485;51.536;3.816;2024-01-30T14:46:24;8.60;99.90
48686;DHT22;34485;51.536;3.816;2024-01-30T14:48:52;8.60;99.90
48686;DHT22;34485;51.536;3.816;2024-01-30T14:51:18;8.60;99.90
48686;DHT22;34485;51.536;3.816;2024-01-30T14:53:44;8.50;99.90
48686;DHT22;34485;51.536;3.816;2024-01-30T14:56:10;8.40;99.90
48686;DHT22;34485;51.536;3.816;2024-01-30T14:58:36;8.40;99.90
48686;DHT22;34485;51.536;3.816;2024-01-30T15:01:02;8.40;99.90
48686;DHT22;34485;51.536;3.816;2024-01-30T15:03:28;8.40;99.90
48686;DHT22;34485;51.536;3.816;2024-01-30T15:05:55;8.40;99.90
48686;DHT22;34485;51.536;3.816;2024-01-30T15:08:21;8.30;99.90
48686;DHT22;34485;51.536;3.816;2024-01-30T15:10:47;8.30;99.90
48686;DHT22;34485;51.536;3.816;2024-01-30T15:13:12;8.30;99.90
48686;DHT22;34485;51.536;3.816;2024-01-30T15:18:04;8.20;99.90
48686;DHT22;34485;51.536;3.816;2024-01-30T15:20:30;8.20;99.90
48686;DHT22;34485;51.536;3.816;2024-01-30T15:22:57;8.20;99.90
48686;DHT22;34485;51.536;3.816;2024-01-30T15:25:23;8.20;99.90
48686;DHT22;34485;51.536;3.816;2024-01-30T15:27:48;8.20;99.90
48686;DHT22;34485;51.536;3.816;2024-01-30T15:30:14;8.10;99.90
48686;DHT22;34485;51.536;3.816;2024-01-30T15:32:40;8.10;99.90
48686;DHT22;34485;51.536;3.816;2024-01-30T15:35:06;8.10;99.90
48686;DHT22;34485;51.536;3.816;2024-01-30T15:37:32;8.10;99.90
48686;DHT22;34485;51.536;3.816;2024-01-30T15:39:58;8.10;99.90
48686;DHT22;34485;51.536;3.816;2024-01-30T15:42:24;8.10;99.90
48686;DHT22;34485;51.536;3.816;2024-01-30T15:44:49;8.10;99.90
48686;DHT22;34485;51.536;3.816;2024-01-30T15:47:15;8.10;99.90
48686;DHT22;34485;51.536;3.816;2024-01-30T15:49:41;8.10;99.90
48686;DHT22;34485;51.536;3.816;2024-01-30T15:52:07;8.10;99.90
48686;DHT22;34485;51.536;3.816;2024-01-30T15:54:38;8.00;99.90
48686;DHT22;34485;51.536;3.816;2024-01-30T15:57:03;8.10;99.90
48686;DHT22;34485;51.536;3.816;2024-01-30T16:01:56;8.00;99.90